sensor_id;sensor_type;location;lat;lon;timestamp;temperature;humidity
47310;DHT22;33046;52.270;6.832;2023-05-10T00:01:40;17.10;99.90
47310;DHT22;33046;52.270;6.832;2023-05-10T00:03:47;17.10;99.90
47310;DHT22;33046;52.270;6.832;2023-05-10T00:05:54;17.10;99.90
47310;DHT22;33046;52.270;6.832;2023-05-10T00:08:01;17.10;99.90
47310;DHT22;33046;52.270;6.832;2023-05-10T00:10:08;17.10;99.90
47310;DHT22;33046;52.270;6.832;2023-05-10T00:12:15;17.00;99.90
47310;DHT22;33046;52.270;6.832;2023-05-10T00:14:22;17.00;99.90
47310;DHT22;33046;52.270;6.832;2023-05-10T00:16:30;16.90;99.90
47310;DHT22;33046;52.270;6.832;2023-05-10T00:18:37;16.90;99.90
47310;DHT22;33046;52.270;6.832;2023-05-10T00:20:43;16.80;99.90
47310;DHT22;33046;52.270;6.832;2023-05-10T00:22:50;16.90;99.90
47310;DHT22;33046;52.270;6.832;2023-05-10T00:24:57;16.90;99.90
47310;DHT22;33046;52.270;6.832;2023-05-10T00:27:04;16.90;99.90
47310;DHT22;33046;52.270;6.832;2023-05-10T00:29:11;16.80;99.90
47310;DHT22;33046;52.270;6.832;2023-05-10T00:31:17;16.80;99.90
47310;DHT22;33046;52.270;6.832;2023-05-10T00:33:25;16.80;99.90
47310;DHT22;33046;52.270;6.832;2023-05-10T00:35:32;16.70;99.90
47310;DHT22;33046;52.270;6.832;2023-05-10T00:37:39;16.70;99.90
47310;DHT22;33046;52.270;6.832;2023-05-10T00:39:46;16.70;99.90
47310;DHT22;33046;52.270;6.832;2023-05-10T00:41:53;16.70;99.90
47310;DHT22;33046;52.270;6.832;2023-05-10T00:43:59;16.60;99.90
47310;DHT22;33046;52.270;6.832;2023-05-10T00:46:06;16.70;99.90
47310;DHT22;33046;52.270;6.832;2023-05-10T00:48:14;16.70;99.90
47310;DHT22;33046;52.270;6.832;2023-05-10T00:50:22;16.60;99.90
47310;DHT22;33046;52.270;6.832;2023-05-10T00:52:30;16.60;99.90
47310;DHT22;33046;52.270;6.832;2023-05-10T00:54:38;16.60;99.90
47310;DHT22;33046;52.270;6.832;2023-05-10T00:56:45;16.60;99.90
47310;DHT22;33046;52.270;6.832;2023-05-10T00:58:51;16.60;99.90
47310;DHT22;33046;52.270;6.832;2023-05-10T01:00:58;16.60;99.90
47310;DHT22;33046;52.270;6.832;2023-05-10T01:03:05;16.60;99.90
47310;DHT22;33046;52.270;6.832;2023-05-10T01:05:13;16.60;99.90
47310;DHT22;33046;52.270;6.832;2023-05-10T01:07:21;16.60;99.90
47310;DHT22;33046;52.270;6.832;2023-05-10T01:09:28;16.60;99.90
47310;DHT22;33046;52.270;6.832;2023-05-10T01:11:35;16.50;99.90
47310;DHT22;33046;52.270;6.832;2023-05-10T01:13:43;16.50;99.90
47310;DHT22;33046;52.270;6.832;2023-05-10T01:15:54;16.60;99.90
47310;DHT22;33046;52.270;6.832;2023-05-10T01:18:02;16.50;99.90
47310;DHT22;33046;52.270;6.832;2023-05-10T01:20:10;16.50;99.90
47310;DHT22;33046;52.270;6.832;2023-05-10T01:22:44;16.50;99.90
47310;DHT22;33046;52.270;6.832;2023-05-10T01:25:18;16.50;99.90
47310;DHT22;33046;52.270;6.832;2023-05-10T01:27:52;16.50;99.90
47310;DHT22;33046;52.270;6.832;2023-05-10T01:30:35;16.40;99.90
47310;DHT22;33046;52.270;6.832;2023-05-10T01:32:54;16.40;99.90
47310;DHT22;33046;52.270;6.832;2023-05-10T01:35:05;16.50;99.90
47310;DHT22;33046;52.270;6.832;2023-05-10T01:37:16;16.50;99.90
47310;DHT22;33046;52.270;6.832;2023-05-10T01:39:28;16.50;99.90
47310;DHT22;33046;52.270;6.832;2023-05-10T01:41:45;16.50;99.90
47310;DHT22;33046;52.270;6.832;2023-05-10T01:44:04;16.50;99.90
47310;DHT22;33046;52.270;6.832;2023-05-10T01:46:17;16.50;99.90
47310;DHT22;33046;52.270;6.832;2023-05-10T01:48:29;16.50;99.90
47310;DHT22;33046;52.270;6.832;2023-05-10T01:50:39;16.50;99.90
47310;DHT22;33046;52.270;6.832;2023-05-10T01:52:51;16.40;99.90
47310;DHT22;33046;52.270;6.832;2023-05-10T01:55:02;16.40;99.90
47310;DHT22;33046;52.270;6.832;2023-05-10T01:57:10;16.40;99.90
47310;DHT22;33046;52.270;6.832;2023-05-10T01:59:20;16.40;99.90
47310;DHT22;33046;52.270;6.832;2023-05-10T02:01:28;16.40;99.90
47310;DHT22;33046;52.270;6.832;2023-05-10T02:03:37;16.40;99.90
47310;DHT22;33046;52.270;6.832;2023-05-10T02:05:46;16.40;99.90
47310;DHT22;33046;52.270;6.832;2023-05-10T02:07:55;16.40;99.90
47310;DHT22;33046;52.270;6.832;2023-05-10T02:10:04;16.40;99.90
47310;DHT22;33046;52.270;6.832;2023-05-10T02:12:13;16.30;99.90
47310;DHT22;33046;52.270;6.832;2023-05-10T02:14:21;16.30;99.90
47310;DHT22;33046;52.270;6.832;2023-05-10T02:16:28;16.30;99.90
47310;DHT22;33046;52.270;6.832;2023-05-10T02:18:37;16.30;99.90
47310;DHT22;33046;52.270;6.832;2023-05-10T02:20:46;16.30;99.90
47310;DHT22;33046;52.270;6.832;2023-05-10T02:22:55;16.30;99.90
47310;DHT22;33046;52.270;6.832;2023-05-10T02:25:04;16.30;99.90
47310;DHT22;33046;52.270;6.832;2023-05-10T02:27:11;16.30;99.90
47310;DHT22;33046;52.270;6.832;2023-05-10T02:29:19;16.30;99.90
47310;DHT22;33046;52.270;6.832;2023-05-10T02:31:27;16.30;99.90
47310;DHT22;33046;52.270;6.832;2023-05-10T02:33:34;16.30;99.90
47310;DHT22;33046;52.270;6.832;2023-05-10T02:35:43;16.30;99.90
47310;DHT22;33046;52.270;6.832;2023-05-10T02:37:50;16.30;99.90
47310;DHT22;33046;52.270;6.832;2023-05-10T02:39:58;16.30;99.90
47310;DHT22;33046;52.270;6.832;2023-05-10T02:42:06;16.30;99.90
47310;DHT22;33046;52.270;6.832;2023-05-10T02:44:15;16.20;99.90
47310;DHT22;33046;52.270;6.832;2023-05-10T02:46:22;16.20;99.90
47310;DHT22;33046;52.270;6.832;2023-05-10T02:48:29;16.30;99.90
47310;DHT22;33046;52.270;6.832;2023-05-10T02:50:36;16.20;99.90
47310;DHT22;33046;52.270;6.832;2023-05-10T02:52:50;16.30;99.90
47310;DHT22;33046;52.270;6.832;2023-05-10T02:55:00;16.20;99.90
47310;DHT22;33046;52.270;6.832;2023-05-10T02:57:11;16.20;99.90
47310;DHT22;33046;52.270;6.832;2023-05-10T02:59:20;16.20;99.90
47310;DHT22;33046;52.270;6.832;2023-05-10T03:01:26;16.20;99.90
47310;DHT22;33046;52.270;6.832;2023-05-10T03:03:33;16.20;99.90
47310;DHT22;33046;52.270;6.832;2023-05-10T03:05:40;16.20;99.90
47310;DHT22;33046;52.270;6.832;2023-05-10T03:07:48;16.20;99.90
47310;DHT22;33046;52.270;6.832;2023-05-10T03:09:55;16.20;99.90
47310;DHT22;33046;52.270;6.832;2023-05-10T03:12:07;16.20;99.90
47310;DHT22;33046;52.270;6.832;2023-05-10T03:14:27;16.20;99.90
47310;DHT22;33046;52.270;6.832;2023-05-10T03:16:42;16.20;99.90
47310;DHT22;33046;52.270;6.832;2023-05-10T03:18:54;16.20;99.90
47310;DHT22;33046;52.270;6.832;2023-05-10T03:21:04;16.20;99.90
47310;DHT22;33046;52.270;6.832;2023-05-10T03:23:21;16.20;99.90
47310;DHT22;33046;52.270;6.832;2023-05-10T03:25:29;16.20;99.90
47310;DHT22;33046;52.270;6.832;2023-05-10T03:27:40;16.20;99.90
47310;DHT22;33046;52.270;6.832;2023-05-10T03:29:48;16.20;99.90
47310;DHT22;33046;52.270;6.832;2023-05-10T03:31:57;16.10;99.90
47310;DHT22;33046;52.270;6.832;2023-05-10T03:34:03;16.10;99.90
47310;DHT22;33046;52.270;6.832;2023-05-10T03:36:10;16.10;99.90
47310;DHT22;33046;52.270;6.832;2023-05-10T03:38:18;16.10;99.90
47310;DHT22;33046;52.270;6.832;2023-05-10T03:40:26;16.10;99.90
47310;DHT22;33046;52.270;6.832;2023-05-10T03:42:33;16.10;99.90
47310;DHT22;33046;52.270;6.832;2023-05-10T03:44:40;16.10;99.90
47310;DHT22;33046;52.270;6.832;2023-05-10T03:46:48;16.10;99.90
47310;DHT22;33046;52.270;6.832;2023-05-10T03:48:54;16.10;99.90
47310;DHT22;33046;52.270;6.832;2023-05-10T03:51:01;16.10;99.90
47310;DHT22;33046;52.270;6.832;2023-05-10T03:53:08;16.10;99.90
47310;DHT22;33046;52.270;6.832;2023-05-10T03:55:16;16.10;99.90
47310;DHT22;33046;52.270;6.832;2023-05-10T03:57:24;16.10;99.90
47310;DHT22;33046;52.270;6.832;2023-05-10T03:59:31;16.10;99.90
47310;DHT22;33046;52.270;6.832;2023-05-10T04:01:37;16.10;99.90
47310;DHT22;33046;52.270;6.832;2023-05-10T04:03:44;16.10;99.90
47310;DHT22;33046;52.270;6.832;2023-05-10T04:05:58;16.10;99.90
47310;DHT22;33046;52.270;6.832;2023-05-10T04:08:06;16.10;99.90
47310;DHT22;33046;52.270;6.832;2023-05-10T04:10:13;16.10;99.90
47310;DHT22;33046;52.270;6.832;2023-05-10T04:12:21;16.10;99.90
47310;DHT22;33046;52.270;6.832;2023-05-10T04:14:28;16.10;99.90
47310;DHT22;33046;52.270;6.832;2023-05-10T04:16:34;16.10;99.90
47310;DHT22;33046;52.270;6.832;2023-05-10T04:18:41;16.10;99.90
47310;DHT22;33046;52.270;6.832;2023-05-10T04:20:48;16.10;99.90
47310;DHT22;33046;52.270;6.832;2023-05-10T04:22:55;16.10;99.90
47310;DHT22;33046;52.270;6.832;2023-05-10T04:25:02;16.10;99.90
47310;DHT22;33046;52.270;6.832;2023-05-10T04:27:08;16.10;99.90
47310;DHT22;33046;52.270;6.832;2023-05-10T04:29:17;16.10;99.90
47310;DHT22;33046;52.270;6.832;2023-05-10T04:31:23;16.10;99.90
47310;DHT22;33046;52.270;6.832;2023-05-10T04:33:30;16.10;99.90
47310;DHT22;33046;52.270;6.832;2023-05-10T04:35:37;16.10;99.90
47310;DHT22;33046;52.270;6.832;2023-05-10T04:37:44;16.10;99.90
47310;DHT22;33046;52.270;6.832;2023-05-10T04:39:51;16.10;99.90
47310;DHT22;33046;52.270;6.832;2023-05-10T04:41:58;16.10;99.90
47310;DHT22;33046;52.270;6.832;2023-05-10T04:44:04;16.10;99.90
47310;DHT22;33046;52.270;6.832;2023-05-10T04:46:12;16.10;99.90
47310;DHT22;33046;52.270;6.832;2023-05-10T04:48:19;16.10;99.90
47310;DHT22;33046;52.270;6.832;2023-05-10T04:50:26;16.10;99.90
47310;DHT22;33046;52.270;6.832;2023-05-10T04:52:33;16.10;99.90
47310;DHT22;33046;52.270;6.832;2023-05-10T04:54:39;16.10;99.90
47310;DHT22;33046;52.270;6.832;2023-05-10T04:56:46;16.20;99.90
47310;DHT22;33046;52.270;6.832;2023-05-10T04:58:53;16.10;99.90
47310;DHT22;33046;52.270;6.832;2023-05-10T05:01:05;16.10;99.90
47310;DHT22;33046;52.270;6.832;2023-05-10T05:03:13;16.10;99.90
47310;DHT22;33046;52.270;6.832;2023-05-10T05:05:20;16.10;99.90
47310;DHT22;33046;52.270;6.832;2023-05-10T05:07:27;16.10;99.90
47310;DHT22;33046;52.270;6.832;2023-05-10T05:09:34;16.20;99.90
47310;DHT22;33046;52.270;6.832;2023-05-10T05:11:40;16.20;99.90
47310;DHT22;33046;52.270;6.832;2023-05-10T05:13:47;16.20;99.90
47310;DHT22;33046;52.270;6.832;2023-05-10T05:15:54;16.10;99.90
47310;DHT22;33046;52.270;6.832;2023-05-10T05:18:01;16.20;99.90
47310;DHT22;33046;52.270;6.832;2023-05-10T05:20:10;16.10;99.90
47310;DHT22;33046;52.270;6.832;2023-05-10T05:22:17;16.20;99.90
47310;DHT22;33046;52.270;6.832;2023-05-10T05:24:25;16.20;99.90
47310;DHT22;33046;52.270;6.832;2023-05-10T05:26:31;16.20;99.90
47310;DHT22;33046;52.270;6.832;2023-05-10T05:28:38;16.20;99.90
47310;DHT22;33046;52.270;6.832;2023-05-10T05:30:45;16.30;99.90
47310;DHT22;33046;52.270;6.832;2023-05-10T05:32:52;16.30;99.90
47310;DHT22;33046;52.270;6.832;2023-05-10T05:34:59;16.30;99.90
47310;DHT22;33046;52.270;6.832;2023-05-10T05:37:07;16.30;99.90
47310;DHT22;33046;52.270;6.832;2023-05-10T05:39:18;16.30;99.90
47310;DHT22;33046;52.270;6.832;2023-05-10T05:41:25;16.30;99.90
47310;DHT22;33046;52.270;6.832;2023-05-10T05:43:32;16.30;99.90
47310;DHT22;33046;52.270;6.832;2023-05-10T05:45:38;16.30;99.90
47310;DHT22;33046;52.270;6.832;2023-05-10T05:47:45;16.30;99.90
47310;DHT22;33046;52.270;6.832;2023-05-10T05:49:52;16.30;99.90
47310;DHT22;33046;52.270;6.832;2023-05-10T05:51:59;16.40;99.90
47310;DHT22;33046;52.270;6.832;2023-05-10T05:54:08;16.40;99.90
47310;DHT22;33046;52.270;6.832;2023-05-10T05:56:14;16.40;99.90
47310;DHT22;33046;52.270;6.832;2023-05-10T05:58:21;16.40;99.90
47310;DHT22;33046;52.270;6.832;2023-05-10T06:00:28;16.40;99.90
47310;DHT22;33046;52.270;6.832;2023-05-10T06:02:35;16.40;99.90
47310;DHT22;33046;52.270;6.832;2023-05-10T06:04:42;16.40;99.90
47310;DHT22;33046;52.270;6.832;2023-05-10T06:06:50;16.40;99.90
47310;DHT22;33046;52.270;6.832;2023-05-10T06:08:57;16.50;99.90
47310;DHT22;33046;52.270;6.832;2023-05-10T06:11:05;16.40;99.90
47310;DHT22;33046;52.270;6.832;2023-05-10T06:13:12;16.40;99.90
47310;DHT22;33046;52.270;6.832;2023-05-10T06:15:18;16.50;99.90
47310;DHT22;33046;52.270;6.832;2023-05-10T06:17:25;16.50;99.90
47310;DHT22;33046;52.270;6.832;2023-05-10T06:19:32;16.50;99.90
47310;DHT22;33046;52.270;6.832;2023-05-10T06:21:39;16.50;99.90
47310;DHT22;33046;52.270;6.832;2023-05-10T06:23:45;16.40;99.90
47310;DHT22;33046;52.270;6.832;2023-05-10T06:25:53;16.50;99.90
47310;DHT22;33046;52.270;6.832;2023-05-10T06:28:01;16.60;99.90
47310;DHT22;33046;52.270;6.832;2023-05-10T06:30:08;16.50;99.90
47310;DHT22;33046;52.270;6.832;2023-05-10T06:32:18;16.50;99.90
47310;DHT22;33046;52.270;6.832;2023-05-10T06:34:25;16.50;99.90
47310;DHT22;33046;52.270;6.832;2023-05-10T06:36:31;16.50;99.90
47310;DHT22;33046;52.270;6.832;2023-05-10T06:38:38;16.50;99.90
47310;DHT22;33046;52.270;6.832;2023-05-10T06:40:45;16.50;99.90
47310;DHT22;33046;52.270;6.832;2023-05-10T06:42:52;16.60;99.90
47310;DHT22;33046;52.270;6.832;2023-05-10T06:45:00;16.50;99.90
47310;DHT22;33046;52.270;6.832;2023-05-10T06:47:07;16.50;99.90
47310;DHT22;33046;52.270;6.832;2023-05-10T06:49:13;16.50;99.90
47310;DHT22;33046;52.270;6.832;2023-05-10T06:51:20;16.60;99.90
47310;DHT22;33046;52.270;6.832;2023-05-10T06:53:27;16.50;99.90
47310;DHT22;33046;52.270;6.832;2023-05-10T06:55:34;16.50;99.90
47310;DHT22;33046;52.270;6.832;2023-05-10T06:57:40;16.60;99.90
47310;DHT22;33046;52.270;6.832;2023-05-10T06:59:47;16.50;99.90
47310;DHT22;33046;52.270;6.832;2023-05-10T07:01:55;16.50;99.90
47310;DHT22;33046;52.270;6.832;2023-05-10T07:04:02;16.50;99.90
47310;DHT22;33046;52.270;6.832;2023-05-10T07:06:09;16.50;99.90
47310;DHT22;33046;52.270;6.832;2023-05-10T07:08:21;16.50;99.90
47310;DHT22;33046;52.270;6.832;2023-05-10T07:10:28;16.50;99.90
47310;DHT22;33046;52.270;6.832;2023-05-10T07:12:35;16.60;99.90
47310;DHT22;33046;52.270;6.832;2023-05-10T07:14:41;16.60;99.90
47310;DHT22;33046;52.270;6.832;2023-05-10T07:16:48;16.60;99.90
47310;DHT22;33046;52.270;6.832;2023-05-10T07:18:56;16.70;99.90
47310;DHT22;33046;52.270;6.832;2023-05-10T07:21:03;16.70;99.90
47310;DHT22;33046;52.270;6.832;2023-05-10T07:23:10;16.80;99.90
47310;DHT22;33046;52.270;6.832;2023-05-10T07:25:17;16.80;99.90
47310;DHT22;33046;52.270;6.832;2023-05-10T07:27:24;16.80;99.90
47310;DHT22;33046;52.270;6.832;2023-05-10T07:29:30;16.80;99.90
47310;DHT22;33046;52.270;6.832;2023-05-10T07:31:37;16.90;99.90
47310;DHT22;33046;52.270;6.832;2023-05-10T07:33:44;17.00;99.90
47310;DHT22;33046;52.270;6.832;2023-05-10T07:35:52;17.10;99.90
47310;DHT22;33046;52.270;6.832;2023-05-10T07:37:59;17.30;99.90
47310;DHT22;33046;52.270;6.832;2023-05-10T07:40:07;17.50;99.90
47310;DHT22;33046;52.270;6.832;2023-05-10T07:42:14;17.60;99.90
47310;DHT22;33046;52.270;6.832;2023-05-10T07:44:21;17.60;99.90
47310;DHT22;33046;52.270;6.832;2023-05-10T07:46:28;17.60;99.90
47310;DHT22;33046;52.270;6.832;2023-05-10T07:48:34;17.70;99.90
47310;DHT22;33046;52.270;6.832;2023-05-10T07:50:41;17.70;99.90
47310;DHT22;33046;52.270;6.832;2023-05-10T07:52:49;17.70;99.90
47310;DHT22;33046;52.270;6.832;2023-05-10T07:54:56;17.70;99.90
47310;DHT22;33046;52.270;6.832;2023-05-10T07:57:03;17.70;99.90
47310;DHT22;33046;52.270;6.832;2023-05-10T07:59:10;17.70;99.90
47310;DHT22;33046;52.270;6.832;2023-05-10T08:01:18;17.70;99.90
47310;DHT22;33046;52.270;6.832;2023-05-10T08:03:25;17.60;99.90
47310;DHT22;33046;52.270;6.832;2023-05-10T08:05:31;17.60;99.90
47310;DHT22;33046;52.270;6.832;2023-05-10T08:07:39;17.60;99.90
47310;DHT22;33046;52.270;6.832;2023-05-10T08:09:47;17.60;99.90
47310;DHT22;33046;52.270;6.832;2023-05-10T08:11:54;17.60;99.90
47310;DHT22;33046;52.270;6.832;2023-05-10T08:14:01;17.60;99.90
47310;DHT22;33046;52.270;6.832;2023-05-10T08:16:07;17.60;99.90
47310;DHT22;33046;52.270;6.832;2023-05-10T08:18:14;17.60;99.90
47310;DHT22;33046;52.270;6.832;2023-05-10T08:20:21;17.60;99.90
47310;DHT22;33046;52.270;6.832;2023-05-10T08:22:28;17.60;99.90
47310;DHT22;33046;52.270;6.832;2023-05-10T08:24:35;17.60;99.90
47310;DHT22;33046;52.270;6.832;2023-05-10T08:26:43;17.50;99.90
47310;DHT22;33046;52.270;6.832;2023-05-10T08:28:50;17.50;99.90
47310;DHT22;33046;52.270;6.832;2023-05-10T08:30:56;17.50;99.90
47310;DHT22;33046;52.270;6.832;2023-05-10T08:33:03;17.50;99.90
47310;DHT22;33046;52.270;6.832;2023-05-10T08:35:10;17.50;99.90
47310;DHT22;33046;52.270;6.832;2023-05-10T08:37:17;17.50;99.90
47310;DHT22;33046;52.270;6.832;2023-05-10T08:39:24;17.50;99.90
47310;DHT22;33046;52.270;6.832;2023-05-10T08:41:39;17.50;99.90
47310;DHT22;33046;52.270;6.832;2023-05-10T08:43:47;17.50;99.90
47310;DHT22;33046;52.270;6.832;2023-05-10T08:45:54;17.50;99.90
47310;DHT22;33046;52.270;6.832;2023-05-10T08:48:02;17.50;99.90
47310;DHT22;33046;52.270;6.832;2023-05-10T08:50:10;17.50;99.90
47310;DHT22;33046;52.270;6.832;2023-05-10T08:52:17;17.50;99.90
47310;DHT22;33046;52.270;6.832;2023-05-10T08:54:24;17.50;99.90
47310;DHT22;33046;52.270;6.832;2023-05-10T08:56:32;17.50;99.90
47310;DHT22;33046;52.270;6.832;2023-05-10T08:58:38;17.50;99.90
47310;DHT22;33046;52.270;6.832;2023-05-10T09:00:48;17.40;99.90
47310;DHT22;33046;52.270;6.832;2023-05-10T09:02:55;17.50;99.90
47310;DHT22;33046;52.270;6.832;2023-05-10T09:05:02;17.50;99.90
47310;DHT22;33046;52.270;6.832;2023-05-10T09:07:10;17.50;99.90
47310;DHT22;33046;52.270;6.832;2023-05-10T09:09:17;17.50;99.90
47310;DHT22;33046;52.270;6.832;2023-05-10T09:11:24;17.40;99.90
47310;DHT22;33046;52.270;6.832;2023-05-10T09:13:32;17.40;99.90
47310;DHT22;33046;52.270;6.832;2023-05-10T09:15:39;17.40;99.90
47310;DHT22;33046;52.270;6.832;2023-05-10T09:17:47;17.40;99.90
47310;DHT22;33046;52.270;6.832;2023-05-10T09:19:57;17.40;99.90
47310;DHT22;33046;52.270;6.832;2023-05-10T09:22:04;17.30;99.90
47310;DHT22;33046;52.270;6.832;2023-05-10T09:24:12;17.30;99.90
47310;DHT22;33046;52.270;6.832;2023-05-10T09:26:22;17.30;99.90
47310;DHT22;33046;52.270;6.832;2023-05-10T09:28:31;17.40;99.90
47310;DHT22;33046;52.270;6.832;2023-05-10T09:30:38;17.40;99.90
47310;DHT22;33046;52.270;6.832;2023-05-10T09:32:47;17.50;99.90
47310;DHT22;33046;52.270;6.832;2023-05-10T09:34:54;17.60;99.90
47310;DHT22;33046;52.270;6.832;2023-05-10T09:37:02;17.60;99.90
47310;DHT22;33046;52.270;6.832;2023-05-10T09:39:09;17.60;99.90
47310;DHT22;33046;52.270;6.832;2023-05-10T09:41:17;17.70;99.90
47310;DHT22;33046;52.270;6.832;2023-05-10T09:43:23;17.70;99.90
47310;DHT22;33046;52.270;6.832;2023-05-10T09:45:32;17.70;99.90
47310;DHT22;33046;52.270;6.832;2023-05-10T09:47:39;17.70;99.90
47310;DHT22;33046;52.270;6.832;2023-05-10T09:49:50;17.60;99.90
47310;DHT22;33046;52.270;6.832;2023-05-10T09:52:00;17.60;99.90
47310;DHT22;33046;52.270;6.832;2023-05-10T09:54:11;17.60;99.90
47310;DHT22;33046;52.270;6.832;2023-05-10T09:56:33;17.70;99.90
47310;DHT22;33046;52.270;6.832;2023-05-10T09:58:40;17.70;99.90
47310;DHT22;33046;52.270;6.832;2023-05-10T10:00:47;17.70;99.90
47310;DHT22;33046;52.270;6.832;2023-05-10T10:02:56;17.70;99.90
47310;DHT22;33046;52.270;6.832;2023-05-10T10:05:06;17.70;99.90
47310;DHT22;33046;52.270;6.832;2023-05-10T10:07:13;17.60;99.90
47310;DHT22;33046;52.270;6.832;2023-05-10T10:09:20;17.60;99.90
47310;DHT22;33046;52.270;6.832;2023-05-10T10:11:27;17.60;99.90
47310;DHT22;33046;52.270;6.832;2023-05-10T10:13:34;17.70;99.90
47310;DHT22;33046;52.270;6.832;2023-05-10T10:15:42;17.80;99.90
47310;DHT22;33046;52.270;6.832;2023-05-10T10:17:49;17.90;99.90
47310;DHT22;33046;52.270;6.832;2023-05-10T10:19:57;18.00;99.90
47310;DHT22;33046;52.270;6.832;2023-05-10T10:22:05;18.20;99.90
47310;DHT22;33046;52.270;6.832;2023-05-10T10:24:12;18.10;99.90
47310;DHT22;33046;52.270;6.832;2023-05-10T10:26:19;18.20;99.90
47310;DHT22;33046;52.270;6.832;2023-05-10T10:28:32;18.30;99.90
47310;DHT22;33046;52.270;6.832;2023-05-10T10:30:43;18.40;99.90
47310;DHT22;33046;52.270;6.832;2023-05-10T10:33:06;18.50;99.90
47310;DHT22;33046;52.270;6.832;2023-05-10T10:35:22;18.60;99.90
47310;DHT22;33046;52.270;6.832;2023-05-10T10:37:43;18.60;99.90
47310;DHT22;33046;52.270;6.832;2023-05-10T10:39:50;18.70;99.90
47310;DHT22;33046;52.270;6.832;2023-05-10T10:41:58;18.60;99.90
47310;DHT22;33046;52.270;6.832;2023-05-10T10:44:38;18.60;99.90
47310;DHT22;33046;52.270;6.832;2023-05-10T10:47:01;18.50;99.90
47310;DHT22;33046;52.270;6.832;2023-05-10T10:49:09;18.60;99.90
47310;DHT22;33046;52.270;6.832;2023-05-10T10:51:16;18.60;99.90
47310;DHT22;33046;52.270;6.832;2023-05-10T10:53:27;18.60;99.90
47310;DHT22;33046;52.270;6.832;2023-05-10T10:55:34;18.70;99.90
47310;DHT22;33046;52.270;6.832;2023-05-10T10:57:45;18.80;99.90
47310;DHT22;33046;52.270;6.832;2023-05-10T11:00:21;18.80;99.90
47310;DHT22;33046;52.270;6.832;2023-05-10T11:02:42;18.90;99.90
47310;DHT22;33046;52.270;6.832;2023-05-10T11:04:49;19.10;99.90
47310;DHT22;33046;52.270;6.832;2023-05-10T11:07:17;19.10;99.90
47310;DHT22;33046;52.270;6.832;2023-05-10T11:09:25;19.30;99.90
47310;DHT22;33046;52.270;6.832;2023-05-10T11:11:34;19.40;99.80
47310;DHT22;33046;52.270;6.832;2023-05-10T11:13:42;19.40;99.30
47310;DHT22;33046;52.270;6.832;2023-05-10T11:15:49;19.40;99.00
47310;DHT22;33046;52.270;6.832;2023-05-10T11:17:56;19.50;98.60
47310;DHT22;33046;52.270;6.832;2023-05-10T11:20:07;19.60;98.50
47310;DHT22;33046;52.270;6.832;2023-05-10T11:22:14;19.70;97.90
47310;DHT22;33046;52.270;6.832;2023-05-10T11:24:22;19.80;98.20
47310;DHT22;33046;52.270;6.832;2023-05-10T11:26:35;19.90;97.60
47310;DHT22;33046;52.270;6.832;2023-05-10T11:28:43;20.00;97.50
47310;DHT22;33046;52.270;6.832;2023-05-10T11:30:50;20.00;97.50
47310;DHT22;33046;52.270;6.832;2023-05-10T11:32:57;20.10;97.40
47310;DHT22;33046;52.270;6.832;2023-05-10T11:35:07;20.20;96.80
47310;DHT22;33046;52.270;6.832;2023-05-10T11:37:14;20.30;97.20
47310;DHT22;33046;52.270;6.832;2023-05-10T11:39:21;20.40;97.30
47310;DHT22;33046;52.270;6.832;2023-05-10T11:41:30;20.40;97.00
47310;DHT22;33046;52.270;6.832;2023-05-10T11:43:38;20.50;96.60
47310;DHT22;33046;52.270;6.832;2023-05-10T11:45:45;20.50;96.40
47310;DHT22;33046;52.270;6.832;2023-05-10T11:47:52;20.50;96.20
47310;DHT22;33046;52.270;6.832;2023-05-10T11:49:59;20.50;95.80
47310;DHT22;33046;52.270;6.832;2023-05-10T11:52:06;20.40;95.50
47310;DHT22;33046;52.270;6.832;2023-05-10T11:54:13;20.40;96.10
47310;DHT22;33046;52.270;6.832;2023-05-10T11:56:20;20.40;96.00
47310;DHT22;33046;52.270;6.832;2023-05-10T11:58:27;20.30;95.70
47310;DHT22;33046;52.270;6.832;2023-05-10T12:00:35;20.30;95.80
47310;DHT22;33046;52.270;6.832;2023-05-10T12:02:42;20.30;95.60
47310;DHT22;33046;52.270;6.832;2023-05-10T12:04:49;20.30;95.40
47310;DHT22;33046;52.270;6.832;2023-05-10T12:06:56;20.20;95.50
47310;DHT22;33046;52.270;6.832;2023-05-10T12:09:06;20.30;95.70
47310;DHT22;33046;52.270;6.832;2023-05-10T12:11:13;20.30;95.80
47310;DHT22;33046;52.270;6.832;2023-05-10T12:13:20;20.30;95.20
47310;DHT22;33046;52.270;6.832;2023-05-10T12:15:27;20.30;95.10
47310;DHT22;33046;52.270;6.832;2023-05-10T12:17:37;20.20;95.40
47310;DHT22;33046;52.270;6.832;2023-05-10T12:19:44;20.20;95.50
47310;DHT22;33046;52.270;6.832;2023-05-10T12:21:51;20.20;95.30
47310;DHT22;33046;52.270;6.832;2023-05-10T12:24:01;20.20;95.30
47310;DHT22;33046;52.270;6.832;2023-05-10T12:26:09;20.10;95.60
47310;DHT22;33046;52.270;6.832;2023-05-10T12:28:19;20.20;95.50
47310;DHT22;33046;52.270;6.832;2023-05-10T12:30:27;20.20;95.50
47310;DHT22;33046;52.270;6.832;2023-05-10T12:32:40;20.30;95.40
47310;DHT22;33046;52.270;6.832;2023-05-10T12:34:47;20.30;95.20
47310;DHT22;33046;52.270;6.832;2023-05-10T12:36:54;20.20;95.50
47310;DHT22;33046;52.270;6.832;2023-05-10T12:39:03;20.20;95.20
47310;DHT22;33046;52.270;6.832;2023-05-10T12:41:11;20.10;94.80
47310;DHT22;33046;52.270;6.832;2023-05-10T12:43:18;20.20;95.20
47310;DHT22;33046;52.270;6.832;2023-05-10T12:45:25;20.10;95.10
47310;DHT22;33046;52.270;6.832;2023-05-10T12:47:32;20.20;95.20
47310;DHT22;33046;52.270;6.832;2023-05-10T12:49:40;20.20;95.10
47310;DHT22;33046;52.270;6.832;2023-05-10T12:51:47;20.20;95.40
47310;DHT22;33046;52.270;6.832;2023-05-10T12:53:54;20.20;96.00
47310;DHT22;33046;52.270;6.832;2023-05-10T12:56:01;20.20;96.10
47310;DHT22;33046;52.270;6.832;2023-05-10T12:58:07;20.20;95.30
47310;DHT22;33046;52.270;6.832;2023-05-10T13:00:15;20.10;95.50
47310;DHT22;33046;52.270;6.832;2023-05-10T13:02:22;20.20;95.50
47310;DHT22;33046;52.270;6.832;2023-05-10T13:04:29;20.10;95.60
47310;DHT22;33046;52.270;6.832;2023-05-10T13:06:37;20.20;95.60
47310;DHT22;33046;52.270;6.832;2023-05-10T13:08:43;20.10;94.60
47310;DHT22;33046;52.270;6.832;2023-05-10T13:10:50;20.10;94.50
47310;DHT22;33046;52.270;6.832;2023-05-10T13:12:57;20.10;94.70
47310;DHT22;33046;52.270;6.832;2023-05-10T13:15:06;20.10;94.80
47310;DHT22;33046;52.270;6.832;2023-05-10T13:17:12;20.10;94.60
47310;DHT22;33046;52.270;6.832;2023-05-10T13:19:19;20.10;94.70
47310;DHT22;33046;52.270;6.832;2023-05-10T13:21:26;20.10;94.70
47310;DHT22;33046;52.270;6.832;2023-05-10T13:23:35;20.00;94.30
47310;DHT22;33046;52.270;6.832;2023-05-10T13:25:41;20.00;94.50
47310;DHT22;33046;52.270;6.832;2023-05-10T13:27:48;20.00;94.50
47310;DHT22;33046;52.270;6.832;2023-05-10T13:29:55;20.00;94.60
47310;DHT22;33046;52.270;6.832;2023-05-10T13:32:02;20.00;94.70